Time;durP1;ratioP1;P1;durP2;ratioP2;P2;SDS_P1;SDS_P2;PMS_P1;PMS_P2;Temp;Humidity;BMP_temperature;BMP_pressure;BME280_temperature;BME280_humidity;BME280_pressure;Samples;Min_cycle;Max_cycle;Signal;HPM_P1;HPM_P2
2022/11/29 00:01:13;;;;;;;20.88;16.67;;;5.50;99.90;;;;;;5029401;28;20109;-76
2022/11/29 00:03:39;;;;;;;17.17;15.50;;;5.60;99.90;;;;;;5045951;28;20049;-76
2022/11/29 00:06:07;;;;;;;17.23;14.85;;;5.50;99.90;;;;;;5045827;28;20045;-76
2022/11/29 00:08:33;;;;;;;18.77;16.55;;;5.50;99.90;;;;;;5045728;28;20038;-76
2022/11/29 00:11:07;;;;;;;18.27;16.48;;;5.50;99.90;;;;;;5047168;28;20032;-76
2022/11/29 00:13:33;;;;;;;20.02;17.63;;;5.50;99.90;;;;;;5026579;28;20096;-76
2022/11/29 00:16:07;;;;;;;18.60;17.00;;;5.50;99.90;;;;;;5027244;28;20030;-76
2022/11/29 00:18:33;;;;;;;14.90;13.45;;;5.50;99.90;;;;;;5025902;28;20037;-76
2022/11/29 00:20:59;;;;;;;14.95;12.98;;;5.50;99.90;;;;;;5031046;28;20474;-76
2022/11/29 00:23:25;;;;;;;15.63;14.02;;;5.50;99.90;;;;;;5046412;28;20041;-76
2022/11/29 00:25:52;;;;;;;22.88;15.55;;;5.50;99.90;;;;;;5046604;28;20052;-76
2022/11/29 00:28:18;;;;;;;19.10;16.20;;;5.50;99.90;;;;;;5029801;28;20034;-76
2022/11/29 00:30:43;;;;;;;20.67;15.77;;;5.50;99.90;;;;;;5046350;28;20063;-75
2022/11/29 00:33:10;;;;;;;18.45;16.30;;;5.50;99.90;;;;;;5030648;28;20034;-76
2022/11/29 00:35:35;;;;;;;24.98;18.85;;;5.50;99.90;;;;;;5025543;28;20021;-76
2022/11/29 00:38:01;;;;;;;26.88;16.73;;;5.50;99.90;;;;;;5026659;28;20034;-76
2022/11/29 00:40:27;;;;;;;24.63;18.30;;;5.50;99.90;;;;;;5033999;28;20033;-76
2022/11/29 00:42:53;;;;;;;33.15;16.50;;;5.60;99.90;;;;;;5046644;28;20534;-76
2022/11/29 00:45:19;;;;;;;17.42;15.25;;;5.60;99.90;;;;;;5028692;28;20066;-75
2022/11/29 00:47:45;;;;;;;18.90;16.75;;;5.60;99.90;;;;;;5045446;28;20048;-76
2022/11/29 00:50:11;;;;;;;22.38;16.98;;;5.60;99.90;;;;;;5045253;28;20021;-76
2022/11/29 00:52:36;;;;;;;26.58;18.80;;;5.60;99.90;;;;;;5045031;28;20025;-76
2022/11/29 00:55:02;;;;;;;23.80;16.65;;;5.60;99.90;;;;;;5045234;28;20387;-76
2022/11/29 00:57:28;;;;;;;30.60;21.27;;;5.70;99.90;;;;;;5046318;28;20028;-76
2022/11/29 00:59:54;;;;;;;26.17;18.50;;;5.70;99.90;;;;;;5044719;28;20044;-76
2022/11/29 01:02:19;;;;;;;23.33;17.33;;;5.70;99.90;;;;;;5033448;28;20152;-76
2022/11/29 01:04:46;;;;;;;21.98;18.35;;;5.80;99.90;;;;;;5025004;28;20038;-76
2022/11/29 01:07:11;;;;;;;21.80;17.20;;;5.80;99.90;;;;;;5025152;28;20533;-76
2022/11/29 01:09:37;;;;;;;16.30;14.75;;;5.80;99.90;;;;;;5025812;28;20033;-76
2022/11/29 01:12:03;;;;;;;20.92;16.17;;;5.80;99.90;;;;;;5024967;28;20049;-76
2022/11/29 01:14:29;;;;;;;16.92;14.68;;;5.80;99.90;;;;;;5026168;28;20395;-75
2022/11/29 01:16:55;;;;;;;20.15;15.27;;;5.80;99.90;;;;;;5035738;28;20084;-76
2022/11/29 01:19:20;;;;;;;16.60;14.90;;;5.70;99.90;;;;;;5044661;28;20101;-75
2022/11/29 01:21:47;;;;;;;17.08;15.40;;;5.80;99.90;;;;;;5045855;28;20033;-76
2022/11/29 01:24:13;;;;;;;21.85;15.20;;;5.80;99.90;;;;;;5044861;28;20041;-76
2022/11/29 01:26:38;;;;;;;15.75;13.95;;;5.80;99.90;;;;;;5045711;28;20060;-76
2022/11/29 01:29:04;;;;;;;19.65;16.35;;;5.80;99.90;;;;;;5044595;28;20060;-76
2022/11/29 01:31:34;;;;;;;22.55;18.30;;;5.80;99.90;;;;;;5045353;28;20029;-76
2022/11/29 01:34:02;;;;;;;25.83;19.25;;;5.80;99.90;;;;;;5044011;28;20025;-76
2022/11/29 01:36:28;;;;;;;23.50;17.42;;;5.70;99.90;;;;;;5045809;28;20030;-76
2022/11/29 01:38:54;;;;;;;20.73;16.70;;;5.80;99.90;;;;;;5045796;28;20033;-76
2022/11/29 01:41:23;;;;;;;18.33;14.63;;;5.80;99.90;;;;;;5045773;28;20057;-76
2022/11/29 01:44:10;;;;;;;22.27;17.50;;;5.80;99.90;;;;;;5044522;28;20025;-76
2022/11/29 01:46:44;;;;;;;19.10;16.40;;;5.80;99.90;;;;;;5045729;28;20578;-76
2022/11/29 01:49:12;;;;;;;15.05;13.48;;;5.90;99.90;;;;;;5027780;28;20517;-76
2022/11/29 01:51:41;;;;;;;16.63;14.93;;;5.80;99.90;;;;;;5026082;28;20375;-77
2022/11/29 01:54:09;;;;;;;15.95;14.35;;;5.80;99.90;;;;;;5024654;28;20026;-76
2022/11/29 01:56:35;;;;;;;27.85;14.52;;;5.80;99.90;;;;;;5025835;28;20030;-77
2022/11/29 01:59:07;;;;;;;17.90;14.32;;;5.90;99.90;;;;;;5025858;28;20038;-77
2022/11/29 02:01:35;;;;;;;16.42;14.88;;;5.90;99.90;;;;;;5024511;28;20134;-76
2022/11/29 02:04:02;;;;;;;16.33;13.65;;;5.90;99.90;;;;;;5041856;28;20033;-77
2022/11/29 02:06:29;;;;;;;17.83;15.85;;;6.00;99.90;;;;;;5027859;28;20084;-76
2022/11/29 02:08:55;;;;;;;30.67;19.08;;;6.00;99.90;;;;;;5044390;28;20044;-77
2022/11/29 02:11:33;;;;;;;27.90;20.35;;;6.00;99.90;;;;;;5045340;28;20025;-77
2022/11/29 02:14:20;;;;;;;25.20;19.55;;;6.10;99.90;;;;;;5044060;28;20037;-77
2022/11/29 02:17:29;;;;;;;23.73;20.95;;;6.10;99.90;;;;;;5044212;28;20446;-76
2022/11/29 02:20:19;;;;;;;14.23;12.50;;;6.20;99.90;;;;;;5029008;28;20089;-76
2022/11/29 02:22:48;;;;;;;27.58;19.38;;;6.20;99.90;;;;;;5029364;28;20033;-77
2022/11/29 02:25:49;;;;;;;24.65;17.25;;;6.30;99.90;;;;;;5029076;28;20041;-76
2022/11/29 02:28:49;;;;;;;31.70;18.70;;;6.30;99.90;;;;;;5047536;28;20068;-76
2022/11/29 02:31:38;;;;;;;23.30;15.75;;;6.40;99.90;;;;;;5047851;28;20042;-76
2022/11/29 02:34:36;;;;;;;23.83;17.70;;;6.40;99.90;;;;;;5048591;28;20037;-76
2022/11/29 02:37:28;;;;;;;18.55;14.73;;;6.40;99.90;;;;;;5027671;28;20033;-76
2022/11/29 02:40:29;;;;;;;22.98;17.33;;;6.40;99.90;;;;;;5027681;28;20040;-76
2022/11/29 02:43:03;;;;;;;22.50;16.02;;;6.40;99.90;;;;;;5029969;28;20060;-76
2022/11/29 02:46:08;;;;;;;29.08;18.45;;;6.50;99.90;;;;;;5028741;28;20064;-76
2022/11/29 02:48:43;;;;;;;22.70;18.05;;;6.50;99.90;;;;;;5028938;28;20121;-76
2022/11/29 02:51:12;;;;;;;16.77;14.07;;;6.50;99.90;;;;;;5028915;28;20026;-76
2022/11/29 02:54:19;;;;;;;21.65;18.60;;;6.50;99.90;;;;;;5039649;28;20025;-76
2022/11/29 02:56:56;;;;;;;28.70;18.13;;;6.50;99.90;;;;;;5037754;28;20087;-76
2022/11/29 02:59:58;;;;;;;22.15;15.05;;;6.60;99.90;;;;;;5048288;28;20026;-76
2022/11/29 03:02:48;;;;;;;21.42;17.10;;;6.50;99.90;;;;;;5048491;28;20034;-76
2022/11/29 03:05:29;;;;;;;20.27;15.98;;;6.50;99.90;;;;;;5046680;28;20132;-76
2022/11/29 03:08:13;;;;;;;21.85;17.70;;;6.50;99.90;;;;;;5039776;28;20026;-76
2022/11/29 03:11:03;;;;;;;22.63;16.90;;;6.50;99.90;;;;;;5027093;28;20053;-76
2022/11/29 03:14:00;;;;;;;33.55;20.25;;;6.50;99.90;;;;;;5028297;28;20090;-76
2022/11/29 03:16:46;;;;;;;23.73;18.75;;;6.40;99.90;;;;;;5028167;28;20076;-76
2022/11/29 03:19:50;;;;;;;25.70;20.63;;;6.40;99.90;;;;;;5028281;28;20033;-76
2022/11/29 03:22:44;;;;;;;32.60;20.60;;;6.40;99.90;;;;;;5029699;28;20487;-76
2022/11/29 03:25:32;;;;;;;27.23;18.65;;;6.30;99.90;;;;;;5047845;28;20044;-76
2022/11/29 03:28:10;;;;;;;25.45;18.85;;;6.30;99.90;;;;;;5047877;28;20040;-76
2022/11/29 03:30:39;;;;;;;21.27;19.17;;;6.30;99.90;;;;;;5047847;28;20084;-76
2022/11/29 03:33:14;;;;;;;21.40;16.95;;;6.30;99.90;;;;;;5047343;28;20059;-76
2022/11/29 03:35:49;;;;;;;25.42;22.02;;;6.20;99.90;;;;;;5047693;28;20034;-76
2022/11/29 03:38:43;;;;;;;26.58;19.02;;;6.20;99.90;;;;;;5046625;28;20033;-76
2022/11/29 03:41:24;;;;;;;30.00;20.92;;;6.20;99.90;;;;;;5047673;28;20029;-76
2022/11/29 03:44:11;;;;;;;19.75;17.20;;;6.20;99.90;;;;;;5046153;28;20083;-76
2022/11/29 03:46:51;;;;;;;21.88;19.75;;;6.10;99.90;;;;;;5047519;28;20033;-76
2022/11/29 03:49:31;;;;;;;22.98;18.10;;;6.10;99.90;;;;;;5046176;28;20025;-76
2022/11/29 03:52:03;;;;;;;30.30;19.90;;;6.00;99.90;;;;;;5041975;28;20030;-76
2022/11/29 03:55:08;;;;;;;25.90;20.98;;;6.10;99.90;;;;;;5026629;28;20026;-76
2022/11/29 03:57:43;;;;;;;27.33;18.55;;;5.90;99.90;;;;;;5036445;28;20042;-76
2022/11/29 04:00:11;;;;;;;34.72;19.52;;;5.90;99.90;;;;;;5026327;28;20037;-76
2022/11/29 04:02:52;;;;;;;33.10;19.20;;;5.90;99.90;;;;;;5027444;28;20093;-76
2022/11/29 04:05:26;;;;;;;23.55;16.13;;;5.90;99.90;;;;;;5025991;28;20052;-76
2022/11/29 04:08:33;;;;;;;20.65;14.50;;;5.70;99.90;;;;;;5034013;28;20053;-76
2022/11/29 04:11:17;;;;;;;19.30;15.45;;;5.70;99.90;;;;;;5027230;28;20030;-76
2022/11/29 04:13:53;;;;;;;20.80;16.60;;;5.50;99.90;;;;;;5026229;28;20030;-75
2022/11/29 04:16:51;;;;;;;18.10;15.32;;;5.40;99.90;;;;;;5026049;28;20041;-76
2022/11/29 04:19:47;;;;;;;21.52;16.77;;;5.40;99.90;;;;;;5027365;28;20030;-76
2022/11/29 04:22:37;;;;;;;21.98;16.48;;;5.30;99.90;;;;;;5027071;28;20049;-76
2022/11/29 04:25:27;;;;;;;19.75;13.85;;;5.30;99.90;;;;;;5036127;28;20029;-76
2022/11/29 04:28:20;;;;;;;19.60;16.42;;;5.30;99.90;;;;;;5046740;28;20036;-76
2022/11/29 04:31:10;;;;;;;19.35;16.98;;;5.20;99.90;;;;;;5045525;28;20060;-76
2022/11/29 04:34:20;;;;;;;19.65;17.30;;;5.20;99.90;;;;;;5045558;28;20030;-76
2022/11/29 04:37:18;;;;;;;34.28;17.27;;;5.30;99.90;;;;;;5046731;28;20029;-76
2022/11/29 04:39:55;;;;;;;19.27;16.42;;;5.20;99.90;;;;;;5045918;28;20039;-76
2022/11/29 04:42:42;;;;;;;22.70;17.13;;;5.30;99.90;;;;;;5045128;28;20049;-76
2022/11/29 04:45:36;;;;;;;20.95;18.60;;;5.30;99.90;;;;;;5046205;28;20029;-75
2022/11/29 04:48:23;;;;;;;26.63;20.17;;;5.40;99.90;;;;;;5045032;28;20390;-75
2022/11/29 04:50:56;;;;;;;21.50;17.52;;;5.50;99.90;;;;;;5045118;28;20029;-76
2022/11/29 04:53:40;;;;;;;25.73;18.48;;;5.50;99.90;;;;;;5046078;28;20121;-76
2022/11/29 04:56:43;;;;;;;24.73;16.70;;;5.60;99.90;;;;;;5025493;28;20037;-76
2022/11/29 04:59:25;;;;;;;19.80;16.42;;;5.60;99.90;;;;;;5025170;28;20033;-76
2022/11/29 05:02:34;;;;;;;21.77;18.55;;;5.70;99.90;;;;;;5027386;28;20032;-76
2022/11/29 05:05:21;;;;;;;23.15;20.73;;;5.80;99.90;;;;;;5026265;28;20038;-76
2022/11/29 05:08:05;;;;;;;23.33;20.30;;;5.90;99.90;;;;;;5026571;28;20030;-76
2022/11/29 05:10:58;;;;;;;38.55;21.33;;;6.00;99.90;;;;;;5025167;28;20030;-76
2022/11/29 05:13:40;;;;;;;28.77;21.38;;;6.00;99.90;;;;;;5026372;28;20033;-76
2022/11/29 05:16:48;;;;;;;34.95;20.50;;;6.00;99.90;;;;;;5026440;28;20053;-76
2022/11/29 05:19:20;;;;;;;32.80;22.73;;;6.00;99.90;;;;;;5026024;28;20052;-76
2022/11/29 05:22:01;;;;;;;25.38;18.33;;;6.00;99.90;;;;;;5026317;28;20030;-76
2022/11/29 05:24:58;;;;;;;31.25;21.55;;;6.00;99.90;;;;;;5026180;28;20030;-76
2022/11/29 05:27:42;;;;;;;32.78;21.50;;;6.00;99.90;;;;;;5031005;28;20041;-75
2022/11/29 05:30:19;;;;;;;28.92;22.63;;;6.00;99.90;;;;;;5026532;28;20034;-76
2022/11/29 05:32:45;;;;;;;34.17;24.25;;;6.00;99.90;;;;;;5026137;28;20380;-76
2022/11/29 05:35:22;;;;;;;27.30;23.50;;;6.10;99.90;;;;;;5026027;28;20022;-76
2022/11/29 05:37:53;;;;;;;49.20;27.45;;;6.10;99.90;;;;;;5024863;28;20049;-75
2022/11/29 05:40:57;;;;;;;47.05;24.70;;;6.10;99.90;;;;;;5026841;28;20022;-76
2022/11/29 05:43:58;;;;;;;32.60;25.35;;;6.10;99.90;;;;;;5026703;28;20089;-76
2022/11/29 05:46:30;;;;;;;37.75;24.20;;;6.20;99.90;;;;;;5026129;28;20034;-76
2022/11/29 05:49:09;;;;;;;51.92;26.50;;;6.30;99.90;;;;;;5024635;28;20036;-75
2022/11/29 05:51:46;;;;;;;38.35;24.83;;;6.30;99.90;;;;;;5024707;28;20080;-76
2022/11/29 05:54:36;;;;;;;57.70;26.48;;;6.30;99.90;;;;;;5025526;28;20046;-76
2022/11/29 05:57:30;;;;;;;33.30;23.35;;;6.30;99.90;;;;;;5046427;28;20033;-76
2022/11/29 05:59:58;;;;;;;64.72;27.98;;;6.40;99.90;;;;;;5046448;28;20061;-75
2022/11/29 06:02:50;;;;;;;41.38;27.20;;;6.40;99.90;;;;;;5025397;28;20038;-76
2022/11/29 06:05:45;;;;;;;51.88;29.67;;;6.40;99.90;;;;;;5041040;28;20041;-76
2022/11/29 06:08:39;;;;;;;36.38;25.10;;;6.40;99.90;;;;;;5029258;28;20026;-76
2022/11/29 06:11:27;;;;;;;49.65;27.17;;;6.50;99.90;;;;;;5030877;28;20030;-76
2022/11/29 06:14:04;;;;;;;38.53;25.63;;;6.50;99.90;;;;;;5033915;28;20028;-76
2022/11/29 06:16:39;;;;;;;38.08;25.48;;;6.60;99.90;;;;;;5031091;28;20059;-76
2022/11/29 06:19:19;;;;;;;31.98;25.55;;;6.60;99.90;;;;;;5049037;28;20095;-76
2022/11/29 06:21:44;;;;;;;;;;;6.60;99.90;;;;;;5049201;28;20033;-76
2022/11/29 06:24:24;;;;;;;39.90;27.80;;;6.60;99.90;;;;;;5047585;28;19961;-76
2022/11/29 06:27:13;;;;;;;39.87;29.07;;;6.60;99.90;;;;;;5043343;28;20065;-76
2022/11/29 06:30:12;;;;;;;58.72;30.42;;;6.60;99.90;;;;;;5037019;28;20056;-76
2022/11/29 06:33:01;;;;;;;57.57;38.60;;;6.70;99.90;;;;;;5047481;28;20079;-76
2022/11/29 06:35:44;;;;;;;56.58;31.40;;;6.70;99.90;;;;;;5030800;28;20280;-76
2022/11/29 06:38:21;;;;;;;41.55;26.00;;;6.80;99.90;;;;;;5031164;28;20033;-76
2022/11/29 06:40:47;;;;;;;38.83;25.23;;;6.70;99.90;;;;;;5025669;28;20034;-76
2022/11/29 06:43:14;;;;;;;40.72;23.63;;;6.70;99.90;;;;;;5022581;28;20042;-76
2022/11/29 06:45:58;;;;;;;37.13;26.48;;;6.70;99.90;;;;;;5027358;28;20033;-76
2022/11/29 06:48:33;;;;;;;42.05;24.67;;;6.80;99.90;;;;;;5029840;28;20041;-75
2022/11/29 06:51:04;;;;;;;29.80;23.33;;;6.80;99.90;;;;;;5048356;28;20018;-77
2022/11/29 06:53:49;;;;;;;40.47;25.73;;;6.80;99.90;;;;;;5047090;28;20030;-76
2022/11/29 06:56:35;;;;;;;39.92;28.70;;;6.80;99.90;;;;;;5046967;28;20139;-77
2022/11/29 06:59:29;;;;;;;46.40;31.60;;;6.80;99.90;;;;;;5046301;28;20039;-76
2022/11/29 07:02:10;;;;;;;47.53;29.65;;;6.80;99.90;;;;;;5057765;28;20077;-76
2022/11/29 07:05:09;;;;;;;32.55;23.90;;;6.80;99.90;;;;;;5059977;28;20041;-76
2022/11/29 07:07:36;;;;;;;59.58;24.98;;;6.80;99.90;;;;;;5045465;28;20454;-76
2022/11/29 07:10:04;;;;;;;45.53;26.85;;;6.80;99.90;;;;;;5048259;28;20036;-76
2022/11/29 07:12:30;;;;;;;35.78;24.80;;;6.90;99.90;;;;;;5047259;28;20040;-76
2022/11/29 07:14:56;;;;;;;38.35;25.08;;;6.90;99.90;;;;;;5048271;28;20407;-76
2022/11/29 07:18:13;;;;;;;41.63;26.42;;;6.90;99.90;;;;;;5046761;28;20026;-76
2022/11/29 07:21:06;;;;;;;45.33;28.13;;;6.90;99.90;;;;;;5039514;28;20046;-75
2022/11/29 07:23:37;;;;;;;31.38;23.35;;;6.90;99.90;;;;;;5028537;28;20029;-76
2022/11/29 07:26:30;;;;;;;48.10;27.10;;;6.80;99.90;;;;;;5028060;28;20038;-76
2022/11/29 07:29:18;;;;;;;35.50;24.58;;;6.90;99.90;;;;;;5027196;28;20386;-76
2022/11/29 07:32:00;;;;;;;40.30;28.25;;;6.90;99.90;;;;;;5026711;28;20467;-76
2022/11/29 07:34:51;;;;;;;50.58;28.35;;;6.90;99.90;;;;;;5028052;28;20037;-76
2022/11/29 07:37:41;;;;;;;38.90;25.30;;;6.90;99.90;;;;;;5034526;28;20033;-76
2022/11/29 07:40:23;;;;;;;35.37;25.10;;;6.90;99.90;;;;;;5046663;28;20036;-76
2022/11/29 07:43:04;;;;;;;44.15;25.95;;;7.00;99.90;;;;;;5047628;28;20298;-76
2022/11/29 07:45:34;;;;;;;29.70;23.52;;;7.00;99.90;;;;;;5047523;28;20036;-76
2022/11/29 07:48:00;;;;;;;34.55;27.52;;;7.00;99.90;;;;;;5046151;28;20026;-76
2022/11/29 07:50:27;;;;;;;43.42;29.75;;;7.00;99.90;;;;;;5047453;28;20035;-76
2022/11/29 07:52:55;;;;;;;37.67;24.67;;;7.00;99.90;;;;;;5032416;28;20065;-76
2022/11/29 07:55:23;;;;;;;36.83;25.73;;;7.00;99.90;;;;;;5027266;28;20057;-76
2022/11/29 07:57:50;;;;;;;39.47;26.50;;;7.00;99.90;;;;;;5026144;28;20121;-76
2022/11/29 08:00:17;;;;;;;36.83;24.95;;;7.00;99.90;;;;;;5027483;28;20041;-76
2022/11/29 08:02:44;;;;;;;40.50;27.40;;;7.10;99.90;;;;;;5027391;28;20057;-76
2022/11/29 08:05:10;;;;;;;35.88;25.73;;;7.10;99.90;;;;;;5026993;28;20046;-76
2022/11/29 08:07:37;;;;;;;49.42;26.38;;;7.10;99.90;;;;;;5022851;28;20470;-76
2022/11/29 08:10:10;;;;;;;40.80;25.67;;;7.10;99.90;;;;;;5045748;28;20037;-76
2022/11/29 08:12:42;;;;;;;35.65;25.88;;;7.20;99.90;;;;;;5045682;28;20132;-76
2022/11/29 08:15:08;;;;;;;47.95;29.98;;;7.20;99.90;;;;;;5046779;28;20485;-76
2022/11/29 08:17:36;;;;;;;34.97;23.98;;;7.30;99.90;;;;;;5046853;28;20039;-76
2022/11/29 08:20:02;;;;;;;40.22;26.95;;;7.30;99.90;;;;;;5046784;28;20029;-76
2022/11/29 08:22:28;;;;;;;38.92;25.90;;;7.30;99.90;;;;;;5045126;28;20094;-76
2022/11/29 08:24:54;;;;;;;36.60;25.45;;;7.30;99.90;;;;;;5045432;28;20037;-76
2022/11/29 08:27:20;;;;;;;36.78;27.20;;;7.30;99.90;;;;;;5046489;28;20033;-76
2022/11/29 08:29:46;;;;;;;27.50;22.17;;;7.30;99.90;;;;;;5045397;28;20121;-76
2022/11/29 08:32:12;;;;;;;37.58;26.80;;;7.40;99.90;;;;;;5045613;28;20025;-76
2022/11/29 08:34:38;;;;;;;45.35;26.38;;;7.40;99.90;;;;;;5045311;28;20136;-76
2022/11/29 08:37:03;;;;;;;38.55;25.90;;;7.40;99.90;;;;;;5045419;28;20038;-76
2022/11/29 08:39:29;;;;;;;37.88;24.73;;;7.50;99.90;;;;;;5032487;28;20049;-76
2022/11/29 08:41:55;;;;;;;44.25;26.15;;;7.60;99.90;;;;;;5025460;28;20116;-76
2022/11/29 08:44:21;;;;;;;42.83;24.63;;;7.70;99.90;;;;;;5025552;28;20038;-76
2022/11/29 08:49:31;;;;;;;34.70;23.20;;;7.70;99.90;;;;;;5011496;28;20041;-76
2022/11/29 08:54:41;;;;;;;35.25;24.63;;;7.80;99.90;;;;;;5025429;28;20471;-76
2022/11/29 08:57:07;;;;;;;26.83;21.10;;;7.80;99.90;;;;;;5009338;28;20037;-76
2022/11/29 08:59:33;;;;;;;32.92;25.40;;;7.80;99.90;;;;;;5026528;28;20030;-76
2022/11/29 09:01:59;;;;;;;45.90;24.58;;;7.80;99.90;;;;;;5026330;28;20036;-76
2022/11/29 09:04:26;;;;;;;29.83;21.80;;;7.90;99.90;;;;;;5026356;28;20054;-75
2022/11/29 09:06:51;;;;;;;28.23;23.75;;;8.00;99.90;;;;;;5026320;28;20041;-76
2022/11/29 09:09:17;;;;;;;29.85;20.25;;;8.00;99.90;;;;;;5026449;28;20033;-76
2022/11/29 09:11:44;;;;;;;34.10;23.35;;;8.00;99.90;;;;;;5025563;28;20018;-76
2022/11/29 09:14:14;;;;;;;41.45;21.48;;;8.10;99.90;;;;;;5024646;28;20028;-76
2022/11/29 09:16:40;;;;;;;34.47;23.02;;;8.10;99.90;;;;;;5026216;28;20030;-76
2022/11/29 09:19:06;;;;;;;31.42;20.95;;;8.20;99.90;;;;;;5026245;28;20061;-76
2022/11/29 09:21:35;;;;;;;32.75;24.17;;;8.40;99.90;;;;;;5026132;28;20030;-76
2022/11/29 09:24:05;;;;;;;36.90;22.15;;;8.50;99.90;;;;;;5026112;28;20121;-76
2022/11/29 09:26:32;;;;;;;31.52;22.02;;;8.50;99.90;;;;;;5026100;28;20038;-75
2022/11/29 09:29:03;;;;;;;33.38;21.88;;;8.50;99.90;;;;;;5037497;28;20021;-76
2022/11/29 09:31:31;;;;;;;32.40;23.88;;;8.50;99.90;;;;;;5044237;28;20129;-76
2022/11/29 09:33:57;;;;;;;38.35;22.52;;;8.50;99.90;;;;;;5045859;28;20029;-76
2022/11/29 09:36:22;;;;;;;30.30;21.90;;;8.40;99.90;;;;;;5044650;28;20038;-76
2022/11/29 09:38:48;;;;;;;36.25;20.20;;;8.40;99.90;;;;;;5044474;28;20395;-76
2022/11/29 09:41:44;;;;;;;36.92;22.13;;;8.50;99.90;;;;;;5044509;28;20045;-76
2022/11/29 09:45:02;;;;;;;30.67;22.77;;;8.50;99.90;;;;;;5044439;28;20033;-76
2022/11/29 09:47:47;;;;;;;26.80;19.90;;;8.50;99.90;;;;;;5023745;28;20106;-76
2022/11/29 09:50:24;;;;;;;29.73;23.08;;;8.60;99.90;;;;;;5007307;28;20041;-76
2022/11/29 09:52:50;;;;;;;30.92;23.23;;;8.60;99.90;;;;;;5025323;28;20129;-75
2022/11/29 09:55:38;;;;;;;28.95;21.20;;;8.80;99.90;;;;;;5024334;28;20033;-76
2022/11/29 09:58:12;;;;;;;37.42;22.35;;;8.80;99.90;;;;;;5025770;28;20088;-76
2022/11/29 10:00:51;;;;;;;32.70;21.67;;;8.90;99.90;;;;;;5026764;28;20025;-76
2022/11/29 10:03:30;;;;;;;52.72;29.77;;;9.10;99.90;;;;;;5025553;28;20034;-76
2022/11/29 10:06:16;;;;;;;41.22;26.08;;;9.20;99.90;;;;;;5024736;28;20038;-75
2022/11/29 10:08:52;;;;;;;44.60;21.58;;;9.30;99.90;;;;;;5025798;28;20022;-76
2022/11/29 10:11:22;;;;;;;29.75;20.95;;;9.30;99.90;;;;;;5024557;28;20045;-76
2022/11/29 10:13:50;;;;;;;;;;;9.20;99.90;;;;;;5024769;28;20037;-75
2022/11/29 10:16:35;;;;;;;26.83;20.52;;;9.20;99.90;;;;;;5025388;28;19905;-76
2022/11/29 10:19:08;;;;;;;31.60;21.70;;;9.20;99.90;;;;;;5024225;28;20101;-75
2022/11/29 10:21:40;;;;;;;34.22;22.63;;;9.30;99.90;;;;;;5025390;28;20072;-76
2022/11/29 10:24:16;;;;;;;25.27;19.73;;;9.40;99.90;;;;;;5024655;28;20029;-76
2022/11/29 10:26:42;;;;;;;30.95;19.77;;;9.40;99.90;;;;;;5025931;28;20030;-76
2022/11/29 10:29:13;;;;;;;26.35;22.30;;;9.30;99.90;;;;;;5039745;28;20038;-75
2022/11/29 10:31:43;;;;;;;26.27;18.33;;;9.40;99.90;;;;;;5025436;28;20054;-76
2022/11/29 10:34:18;;;;;;;25.33;18.63;;;9.40;99.90;;;;;;5025797;28;20054;-76
2022/11/29 10:36:51;;;;;;;32.17;18.25;;;9.30;99.90;;;;;;5025907;28;20034;-76
2022/11/29 10:39:53;;;;;;;33.53;18.48;;;9.20;99.90;;;;;;5030081;28;20029;-76
2022/11/29 10:45:15;;;;;;;29.63;18.50;;;9.20;99.90;;;;;;5033866;28;20037;-76
2022/11/29 10:47:45;;;;;;;33.92;17.73;;;9.30;99.90;;;;;;5048492;28;20033;-76
2022/11/29 10:50:24;;;;;;;19.08;16.25;;;9.30;99.90;;;;;;5047265;28;20105;-76
2022/11/29 10:52:50;;;;;;;19.80;14.75;;;9.40;99.90;;;;;;5048455;28;20092;-76
2022/11/29 10:55:17;;;;;;;26.98;17.65;;;9.50;99.90;;;;;;5031752;28;20018;-76
2022/11/29 10:58:13;;;;;;;30.63;18.40;;;9.50;99.90;;;;;;5026992;28;20112;-76
2022/11/29 11:00:45;;;;;;;25.85;14.77;;;9.70;99.90;;;;;;5028671;28;20044;-76
2022/11/29 11:03:16;;;;;;;28.40;21.35;;;9.80;99.90;;;;;;5027256;28;20029;-75
2022/11/29 11:05:53;;;;;;;16.50;12.48;;;9.70;99.90;;;;;;5045305;28;20033;-75
2022/11/29 11:08:19;;;;;;;13.02;10.35;;;9.60;99.90;;;;;;5046492;28;20030;-76
2022/11/29 11:10:52;;;;;;;17.25;12.73;;;9.60;99.90;;;;;;5048410;28;20033;-75
2022/11/29 11:13:23;;;;;;;20.27;15.75;;;9.50;99.90;;;;;;5048148;28;20022;-76
2022/11/29 11:15:56;;;;;;;23.92;18.60;;;9.40;99.90;;;;;;5048121;28;20096;-75
2022/11/29 11:18:27;;;;;;;18.08;14.27;;;9.50;99.90;;;;;;5048412;28;20047;-75
2022/11/29 11:20:57;;;;;;;19.20;14.15;;;9.50;99.90;;;;;;5048152;28;20040;-76
2022/11/29 11:23:24;;;;;;;19.92;13.65;;;9.60;99.90;;;;;;5046421;28;20052;-75
2022/11/29 11:26:05;;;;;;;20.15;14.73;;;9.60;99.90;;;;;;5047489;28;20085;-76
2022/11/29 11:28:53;;;;;;;33.83;24.27;;;9.70;99.90;;;;;;5047889;28;20057;-76
2022/11/29 11:31:29;;;;;;;23.20;16.30;;;9.70;99.90;;;;;;5030136;28;20025;-76
2022/11/29 11:33:55;;;;;;;23.17;17.42;;;9.80;99.90;;;;;;5046631;28;20037;-75
2022/11/29 11:36:26;;;;;;;14.57;13.15;;;9.80;99.90;;;;;;5047736;28;20025;-76
2022/11/29 11:38:53;;;;;;;19.00;13.85;;;9.60;99.90;;;;;;5046367;28;20626;-76
2022/11/29 11:44:25;;;;;;;17.08;13.65;;;9.60;99.90;;;;;;5047630;28;20456;-76
2022/11/29 11:46:51;;;;;;;18.73;15.50;;;9.70;99.90;;;;;;5047479;28;20112;-75
2022/11/29 11:49:29;;;;;;;15.13;13.57;;;9.60;99.90;;;;;;5047735;28;20047;-75
2022/11/29 11:51:58;;;;;;;19.98;14.63;;;9.70;99.90;;;;;;5047140;28;20034;-76
2022/11/29 11:54:26;;;;;;;16.83;11.05;;;9.70;99.90;;;;;;5043592;28;20514;-76
2022/11/29 11:56:51;;;;;;;18.00;13.57;;;9.60;99.90;;;;;;5026375;28;20030;-75
2022/11/29 11:59:20;;;;;;;13.48;11.75;;;9.40;99.90;;;;;;5027516;28;20038;-75
2022/11/29 12:01:46;;;;;;;20.60;13.27;;;9.30;99.90;;;;;;5027491;28;20036;-76
2022/11/29 12:04:26;;;;;;;17.17;15.40;;;9.20;99.90;;;;;;5027322;28;20045;-75
2022/11/29 12:07:08;;;;;;;16.13;12.20;;;9.20;99.90;;;;;;5026208;28;20038;-75
2022/11/29 12:09:53;;;;;;;19.65;14.23;;;9.30;99.90;;;;;;5028559;28;20034;-75
2022/11/29 12:12:30;;;;;;;13.38;11.38;;;9.20;99.90;;;;;;5026037;28;20033;-75
2022/11/29 12:14:58;;;;;;;18.17;14.52;;;9.30;99.90;;;;;;5026206;28;20050;-75
2022/11/29 12:17:30;;;;;;;16.00;12.27;;;9.30;99.90;;;;;;5026997;28;20038;-76
2022/11/29 12:20:14;;;;;;;16.42;14.75;;;9.40;99.90;;;;;;5025860;28;20030;-75
2022/11/29 12:23:02;;;;;;;65.35;52.88;;;9.50;99.90;;;;;;5027084;28;20029;-76
2022/11/29 12:25:33;;;;;;;27.77;20.23;;;9.60;99.90;;;;;;5042961;28;20056;-76
2022/11/29 12:27:59;;;;;;;26.13;18.58;;;9.70;99.90;;;;;;5047095;28;20368;-75
2022/11/29 12:30:25;;;;;;;29.75;22.90;;;9.60;99.90;;;;;;5046374;28;20032;-75
2022/11/29 12:33:16;;;;;;;29.98;23.67;;;9.70;99.90;;;;;;5045490;28;20072;-75
2022/11/29 12:36:16;;;;;;;18.35;14.95;;;9.70;99.90;;;;;;5045471;28;20037;-75
2022/11/29 12:39:17;;;;;;;24.20;17.60;;;9.50;99.90;;;;;;5045288;28;20041;-75
2022/11/29 12:42:02;;;;;;;19.33;17.15;;;9.30;99.90;;;;;;5045628;28;20052;-75
2022/11/29 12:44:50;;;;;;;22.67;20.27;;;9.30;99.90;;;;;;5046492;28;20040;-75
2022/11/29 12:47:45;;;;;;;20.42;14.73;;;9.40;99.90;;;;;;5045320;28;20041;-75
2022/11/29 12:50:28;;;;;;;17.33;13.18;;;9.40;99.90;;;;;;5046484;28;20036;-75
2022/11/29 12:53:00;;;;;;;16.77;13.55;;;9.30;99.90;;;;;;5044683;28;20037;-75
2022/11/29 12:55:44;;;;;;;17.30;12.90;;;9.20;99.90;;;;;;5044753;28;20048;-75
2022/11/29 12:58:20;;;;;;;15.32;13.15;;;9.20;99.90;;;;;;5045253;28;20100;-75
2022/11/29 13:00:56;;;;;;;14.73;12.10;;;9.20;99.90;;;;;;5045043;28;20021;-74
2022/11/29 13:03:59;;;;;;;19.50;13.00;;;9.20;99.90;;;;;;5044567;28;20032;-74
2022/11/29 13:06:36;;;;;;;16.35;12.23;;;9.20;99.90;;;;;;5044827;28;20463;-74
2022/11/29 13:09:33;;;;;;;18.20;11.93;;;9.10;99.90;;;;;;5040360;28;20036;-74
2022/11/29 13:12:08;;;;;;;14.68;13.27;;;9.00;99.90;;;;;;5025289;28;20471;-74
2022/11/29 13:14:56;;;;;;;13.05;11.23;;;9.00;99.90;;;;;;5026058;28;20044;-74
2022/11/29 13:17:39;;;;;;;18.10;13.35;;;9.00;99.90;;;;;;5026195;28;20084;-74
2022/11/29 13:20:17;;;;;;;18.52;14.48;;;9.10;99.90;;;;;;5026305;28;20026;-74
2022/11/29 13:23:06;;;;;;;16.35;12.35;;;9.10;99.90;;;;;;5044445;28;20031;-74
2022/11/29 13:25:39;;;;;;;13.63;11.93;;;9.10;99.90;;;;;;5026133;28;20040;-75
2022/11/29 13:28:15;;;;;;;16.90;13.55;;;9.10;99.90;;;;;;5053178;28;20029;-75
2022/11/29 13:30:41;;;;;;;16.48;14.38;;;9.00;99.90;;;;;;5065843;28;20032;-75
2022/11/29 13:33:32;;;;;;;15.13;13.02;;;9.00;99.90;;;;;;5044306;28;20041;-75
2022/11/29 13:35:58;;;;;;;17.77;13.80;;;8.90;99.90;;;;;;5058732;28;20029;-75
2022/11/29 13:38:53;;;;;;;31.13;16.90;;;8.90;99.90;;;;;;5060534;28;20046;-75
2022/11/29 13:41:44;;;;;;;23.05;16.30;;;9.00;99.90;;;;;;5044223;28;20120;-76